Time,TemperatureF,DewpointF,PressureIn,WindDirection,WindDirectionDegrees,WindSpeedMPH,WindSpeedGustMPH,Humidity,HourlyPrecipIn,Conditions,Clouds,dailyrainin,SoftwareType,DateUTC
2013-04-04 00:02:00,42.0,24.0,28.70,NNE,30,0.0,0.0,49,0.00,,,0.00,,2013-04-04 05:02:00,
2013-04-04 00:12:00,42.0,24.0,28.70,NNE,30,0.0,0.0,49,0.00,,,0.00,,2013-04-04 05:12:00,
2013-04-04 00:23:00,42.0,26.0,28.70,West,281,0.0,2.0,52,0.00,,,0.00,,2013-04-04 05:23:00,
2013-04-04 00:32:00,42.0,26.0,28.67,WSW,252,0.0,0.0,52,0.00,,,0.00,,2013-04-04 05:32:00,
2013-04-04 00:42:00,42.0,26.0,28.67,WSW,252,0.0,0.0,52,0.00,,,0.00,,2013-04-04 05:42:00,
2013-04-04 00:52:00,42.0,26.0,28.67,WSW,251,2.0,3.0,53,0.00,,,0.00,,2013-04-04 05:52:00,
2013-04-04 01:02:00,42.0,27.0,28.67,WSW,253,3.0,3.0,54,0.00,,,0.00,,2013-04-04 06:02:00,
2013-04-04 01:12:00,42.0,27.0,28.67,WSW,253,3.0,3.0,54,0.00,,,0.00,,2013-04-04 06:12:00,
2013-04-04 01:22:00,42.0,27.0,28.67,WSW,253,0.0,3.0,54,0.00,,,0.00,,2013-04-04 06:22:00,
2013-04-04 01:32:00,42.0,27.0,28.67,WSW,253,0.0,0.0,55,0.00,,,0.00,,2013-04-04 06:32:00,
2013-04-04 01:42:00,42.0,27.0,28.67,WSW,253,0.0,0.0,55,0.00,,,0.00,,2013-04-04 06:42:00,
2013-04-04 01:52:00,42.0,27.0,28.67,WSW,253,0.0,0.0,55,0.00,,,0.00,,2013-04-04 06:52:00,
2013-04-04 02:02:00,42.0,27.0,28.67,WSW,253,0.0,0.0,55,0.00,,,0.00,,2013-04-04 07:02:00,
2013-04-04 02:12:00,42.0,27.0,28.67,WSW,253,0.0,0.0,55,0.00,,,0.00,,2013-04-04 07:12:00,
2013-04-04 02:22:00,42.0,27.0,28.67,WSW,253,0.0,0.0,55,0.00,,,0.00,,2013-04-04 07:22:00,
2013-04-04 02:32:00,42.0,27.0,28.67,WSW,253,0.0,0.0,54,0.00,,,0.00,,2013-04-04 07:32:00,
2013-04-04 02:43:00,42.0,27.0,28.67,WSW,253,0.0,0.0,54,0.00,,,0.00,,2013-04-04 07:43:00,
2013-04-04 02:52:00,42.0,27.0,28.67,WSW,254,0.0,0.0,54,0.00,,,0.00,,2013-04-04 07:52:00,
2013-04-04 03:02:00,41.0,25.0,28.67,WSW,257,3.0,3.0,53,0.00,,,0.00,,2013-04-04 08:02:00,
2013-04-04 03:12:00,41.0,25.0,28.67,WSW,257,3.0,3.0,53,0.00,,,0.00,,2013-04-04 08:12:00,
2013-04-04 03:22:00,41.0,25.0,28.64,SW,233,2.0,3.0,53,0.00,,,0.00,,2013-04-04 08:22:00,
2013-04-04 03:32:00,41.0,25.0,28.64,SW,233,2.0,3.0,53,0.00,,,0.00,,2013-04-04 08:32:00,
2013-04-04 03:42:00,41.0,25.0,28.64,SW,233,2.0,3.0,53,0.00,,,0.00,,2013-04-04 08:42:00,
2013-04-04 03:52:00,41.0,27.0,28.64,WSW,237,3.0,3.0,56,0.00,,,0.00,,2013-04-04 08:52:00,
2013-04-04 04:03:00,41.0,27.0,28.64,WSW,237,0.0,0.0,57,0.00,,,0.00,,2013-04-04 09:03:00,
2013-04-04 04:12:00,41.0,27.0,28.64,WSW,237,0.0,0.0,57,0.00,,,0.00,,2013-04-04 09:12:00,
2013-04-04 04:22:00,41.0,28.0,28.64,WSW,237,2.0,3.0,59,0.00,,,0.00,,2013-04-04 09:22:00,
2013-04-04 04:33:00,40.0,28.0,28.64,WSW,237,0.0,2.0,62,0.00,,,0.00,,2013-04-04 09:33:00,
2013-04-04 04:43:00,40.0,28.0,28.64,WSW,237,0.0,2.0,62,0.00,,,0.00,,2013-04-04 09:43:00,
2013-04-04 04:53:00,40.0,28.0,28.64,WSW,237,0.0,0.0,63,0.00,,,0.00,,2013-04-04 09:53:00,
2013-04-04 05:04:00,40.0,29.0,28.64,WSW,237,0.0,0.0,64,0.00,,,0.00,,2013-04-04 10:04:00,
2013-04-04 05:12:00,40.0,29.0,28.64,WSW,237,0.0,0.0,64,0.00,,,0.00,,2013-04-04 10:12:00,
2013-04-04 05:23:00,40.0,30.0,28.64,West,266,4.0,4.0,68,0.00,,,0.00,,2013-04-04 10:23:00,
2013-04-04 05:33:00,40.0,30.0,28.64,West,266,4.0,4.0,68,0.00,,,0.00,,2013-04-04 10:33:00,
2013-04-04 05:42:00,40.0,30.0,28.64,West,266,4.0,4.0,68,0.00,,,0.00,,2013-04-04 10:42:00,
2013-04-04 05:53:00,40.0,31.0,28.64,WSW,243,0.0,3.0,70,0.00,,,0.00,,2013-04-04 10:53:00,
2013-04-04 06:02:00,40.0,31.0,28.61,WSW,243,0.0,0.0,69,0.00,,,0.00,,2013-04-04 11:02:00,
2013-04-04 06:12:00,40.0,31.0,28.61,WSW,243,0.0,0.0,69,0.00,,,0.00,,2013-04-04 11:12:00,
2013-04-04 06:22:00,38.0,29.0,28.61,WSW,243,0.0,0.0,69,0.00,,,0.00,,2013-04-04 11:22:00,
2013-04-04 06:32:00,38.0,29.0,28.61,WSW,243,0.0,0.0,69,0.00,,,0.00,,2013-04-04 11:32:00,
2013-04-04 06:42:00,38.0,29.0,28.61,WSW,243,0.0,0.0,69,0.00,,,0.00,,2013-04-04 11:42:00,
2013-04-04 06:54:00,36.0,27.0,28.64,WSW,243,0.0,0.0,70,0.00,,,0.00,,2013-04-04 11:54:00,
2013-04-04 07:02:00,36.0,27.0,28.64,WSW,243,0.0,0.0,70,0.00,,,0.00,,2013-04-04 12:02:00,
2013-04-04 07:12:00,36.0,27.0,28.64,WSW,243,0.0,0.0,70,0.00,,,0.00,,2013-04-04 12:12:00,
2013-04-04 07:22:00,34.0,26.0,28.64,WSW,243,0.0,0.0,71,0.00,,,0.00,,2013-04-04 12:22:00,
2013-04-04 07:32:00,33.0,25.0,28.64,WSW,243,0.0,0.0,72,0.00,,,0.00,,2013-04-04 12:32:00,
2013-04-04 07:43:00,33.0,25.0,28.64,WSW,243,0.0,0.0,72,0.00,,,0.00,,2013-04-04 12:43:00,
2013-04-04 07:52:00,34.0,26.0,28.64,WSW,243,0.0,0.0,73,0.00,,,0.00,,2013-04-04 12:52:00,
2013-04-04 08:02:00,34.0,27.0,28.64,WSW,243,0.0,0.0,74,0.00,,,0.00,,2013-04-04 13:02:00,
2013-04-04 08:12:00,34.0,27.0,28.64,WSW,243,0.0,0.0,74,0.00,,,0.00,,2013-04-04 13:12:00,
2013-04-04 08:22:00,36.0,29.0,28.64,WSW,243,0.0,0.0,75,0.00,,,0.00,,2013-04-04 13:22:00,
2013-04-04 08:32:00,36.0,29.0,28.64,WSW,243,0.0,0.0,76,0.00,,,0.00,,2013-04-04 13:32:00,
2013-04-04 08:42:00,36.0,29.0,28.64,WSW,243,0.0,0.0,76,0.00,,,0.00,,2013-04-04 13:42:00,
2013-04-04 08:53:00,36.0,29.0,28.64,WSW,243,0.0,0.0,76,0.00,,,0.00,,2013-04-04 13:53:00,
2013-04-04 09:03:00,39.0,33.0,28.64,WSW,243,0.0,0.0,80,0.00,,,0.00,,2013-04-04 14:03:00,
2013-04-04 09:12:00,39.0,33.0,28.64,WSW,243,0.0,0.0,80,0.00,,,0.00,,2013-04-04 14:12:00,
2013-04-04 09:22:00,42.0,35.0,28.64,WSW,244,0.0,0.0,76,0.00,,,0.00,,2013-04-04 14:22:00,
2013-04-04 09:32:00,42.0,34.0,28.64,NW,305,2.0,2.0,73,0.00,,,0.00,,2013-04-04 14:32:00,
2013-04-04 09:42:00,42.0,34.0,28.64,NW,305,2.0,2.0,73,0.00,,,0.00,,2013-04-04 14:42:00,
2013-04-04 09:53:00,44.0,33.0,28.64,WSW,247,3.0,3.0,66,0.00,,,0.00,,2013-04-04 14:53:00,
2013-04-04 10:02:00,44.0,33.0,28.64,WSW,247,3.0,3.0,66,0.00,,,0.00,,2013-04-04 15:02:00,
2013-04-04 10:12:00,44.0,33.0,28.64,WSW,247,3.0,3.0,66,0.00,,,0.00,,2013-04-04 15:12:00,
2013-04-04 10:22:00,47.0,33.0,28.64,West,261,2.0,3.0,59,0.00,,,0.00,,2013-04-04 15:22:00,
2013-04-04 10:33:00,48.0,32.0,28.61,West,273,3.0,3.0,53,0.00,,,0.00,,2013-04-04 15:33:00,
2013-04-04 10:43:00,48.0,32.0,28.61,West,273,3.0,3.0,53,0.00,,,0.00,,2013-04-04 15:43:00,
2013-04-04 10:53:00,48.0,31.0,28.64,West,259,3.0,6.0,51,0.00,,,0.00,,2013-04-04 15:53:00,
2013-04-04 11:03:00,50.0,32.0,28.64,West,266,3.0,3.0,49,0.00,,,0.00,,2013-04-04 16:03:00,
2013-04-04 11:12:00,50.0,32.0,28.64,West,266,3.0,3.0,49,0.00,,,0.00,,2013-04-04 16:12:00,
2013-04-04 11:23:00,52.0,32.0,28.64,SSE,159,4.0,5.0,46,0.00,,,0.00,,2013-04-04 16:23:00,
2013-04-04 11:32:00,52.0,30.0,28.64,SSE,148,3.0,3.0,42,0.00,,,0.00,,2013-04-04 16:32:00,
2013-04-04 11:42:00,52.0,30.0,28.64,SSE,148,3.0,3.0,42,0.00,,,0.00,,2013-04-04 16:42:00,
2013-04-04 11:53:00,53.0,31.0,28.64,WSW,256,2.0,2.0,42,0.00,,,0.00,,2013-04-04 16:53:00,
2013-04-04 12:02:00,54.0,30.0,28.61,WSW,253,5.0,5.0,40,0.00,,,0.00,,2013-04-04 17:02:00,
2013-04-04 12:13:00,54.0,30.0,28.61,WSW,253,5.0,5.0,40,0.00,,,0.00,,2013-04-04 17:13:00,
2013-04-04 12:22:00,54.0,30.0,28.61,SSW,206,5.0,5.0,40,0.00,,,0.00,,2013-04-04 17:22:00,
2013-04-04 12:33:00,55.0,30.0,28.61,WNW,294,0.0,0.0,38,0.00,,,0.00,,2013-04-04 17:33:00,
2013-04-04 12:42:00,55.0,30.0,28.61,WNW,294,0.0,0.0,38,0.00,,,0.00,,2013-04-04 17:42:00,
2013-04-04 12:52:00,57.0,31.0,28.61,SSE,155,2.0,3.0,37,0.00,,,0.00,,2013-04-04 17:52:00,
2013-04-04 13:02:00,58.0,32.0,28.61,SW,230,5.0,5.0,37,0.00,,,0.00,,2013-04-04 18:02:00,
2013-04-04 13:12:00,58.0,32.0,28.61,SW,230,5.0,5.0,37,0.00,,,0.00,,2013-04-04 18:12:00,
2013-04-04 13:22:00,58.0,32.0,28.61,SSW,205,3.0,5.0,37,0.00,,,0.00,,2013-04-04 18:22:00,
2013-04-04 13:32:00,59.0,33.0,28.61,East,86,3.0,5.0,37,0.00,,,0.00,,2013-04-04 18:32:00,
2013-04-04 13:42:00,59.0,33.0,28.61,East,86,3.0,5.0,37,0.00,,,0.00,,2013-04-04 18:42:00,
2013-04-04 13:52:00,59.0,33.0,28.61,East,86,3.0,5.0,37,0.00,,,0.00,,2013-04-04 18:52:00,
2013-04-04 14:02:00,61.0,33.0,28.58,WSW,246,3.0,4.0,35,0.00,,,0.00,,2013-04-04 19:02:00,
2013-04-04 14:12:00,61.0,33.0,28.58,WSW,246,3.0,4.0,35,0.00,,,0.00,,2013-04-04 19:12:00,
2013-04-04 14:22:00,62.0,33.0,28.58,SW,219,6.0,6.0,34,0.00,,,0.00,,2013-04-04 19:22:00,
2013-04-04 14:32:00,61.0,32.0,28.58,WSW,258,0.0,0.0,34,0.00,,,0.00,,2013-04-04 19:32:00,
2013-04-04 14:42:00,61.0,32.0,28.58,WSW,258,0.0,0.0,34,0.00,,,0.00,,2013-04-04 19:42:00,
2013-04-04 14:52:00,62.0,33.0,28.55,NNW,337,3.0,5.0,34,0.00,,,0.00,,2013-04-04 19:52:00,
2013-04-04 15:03:00,62.0,34.0,28.55,ESE,115,0.0,3.0,35,0.00,,,0.00,,2013-04-04 20:03:00,
2013-04-04 15:12:00,62.0,34.0,28.55,ESE,115,0.0,3.0,35,0.00,,,0.00,,2013-04-04 20:12:00,
2013-04-04 15:22:00,62.0,34.0,28.55,ESE,115,0.0,3.0,35,0.00,,,0.00,,2013-04-04 20:22:00,
2013-04-04 15:32:00,63.0,33.0,28.55,West,265,0.0,2.0,33,0.00,,,0.00,,2013-04-04 20:32:00,
2013-04-04 15:42:00,63.0,33.0,28.55,West,265,0.0,2.0,33,0.00,,,0.00,,2013-04-04 20:42:00,
2013-04-04 15:53:00,64.0,34.0,28.55,SSE,152,3.0,5.0,33,0.00,,,0.00,,2013-04-04 20:53:00,
2013-04-04 16:02:00,64.0,34.0,28.55,SSE,152,3.0,5.0,33,0.00,,,0.00,,2013-04-04 21:02:00,
2013-04-04 16:12:00,64.0,34.0,28.55,SSE,152,3.0,5.0,33,0.00,,,0.00,,2013-04-04 21:12:00,
2013-04-04 16:22:00,66.0,34.0,28.52,South,176,3.0,3.0,31,0.00,,,0.00,,2013-04-04 21:22:00,
2013-04-04 16:32:00,66.0,34.0,28.52,South,175,0.0,3.0,30,0.00,,,0.00,,2013-04-04 21:32:00,
2013-04-04 16:43:00,66.0,34.0,28.52,South,175,0.0,3.0,30,0.00,,,0.00,,2013-04-04 21:43:00,
2013-04-04 16:52:00,65.0,33.0,28.52,NW,305,0.0,0.0,30,0.00,,,0.00,,2013-04-04 21:52:00,
2013-04-04 17:03:00,65.0,33.0,28.52,NW,305,0.0,0.0,30,0.00,,,0.00,,2013-04-04 22:03:00,
2013-04-04 17:12:00,65.0,33.0,28.52,NW,305,0.0,0.0,30,0.00,,,0.00,,2013-04-04 22:12:00,
2013-04-04 17:23:00,65.0,33.0,28.49,West,267,0.0,3.0,30,0.00,,,0.00,,2013-04-04 22:23:00,
2013-04-04 17:33:00,64.0,32.0,28.49,West,281,0.0,0.0,30,0.00,,,0.00,,2013-04-04 22:33:00,
2013-04-04 17:43:00,64.0,32.0,28.49,West,281,0.0,0.0,30,0.00,,,0.00,,2013-04-04 22:43:00,
2013-04-04 17:53:00,64.0,33.0,28.49,South,177,3.0,4.0,31,0.00,,,0.00,,2013-04-04 22:53:00,
2013-04-04 18:02:00,64.0,32.0,28.49,WSW,245,3.0,5.0,30,0.00,,,0.00,,2013-04-04 23:02:00,
2013-04-04 18:12:00,64.0,32.0,28.49,WSW,245,3.0,5.0,30,0.00,,,0.00,,2013-04-04 23:12:00,
2013-04-04 18:22:00,65.0,33.0,28.49,West,265,2.0,3.0,30,0.00,,,0.00,,2013-04-04 23:22:00,
2013-04-04 18:32:00,65.0,33.0,28.52,WNW,292,3.0,4.0,30,0.00,,,0.00,,2013-04-04 23:32:00,
2013-04-04 18:42:00,65.0,33.0,28.52,WNW,292,3.0,4.0,30,0.00,,,0.00,,2013-04-04 23:42:00,
2013-04-04 18:52:00,65.0,31.0,28.52,West,278,0.0,0.0,28,0.00,,,0.00,,2013-04-04 23:52:00,
2013-04-04 19:02:00,65.0,29.0,28.52,West,278,0.0,0.0,26,0.00,,,0.00,,2013-04-05 00:02:00,
2013-04-04 19:12:00,65.0,29.0,28.52,West,278,0.0,0.0,26,0.00,,,0.00,,2013-04-05 00:12:00,
2013-04-04 19:22:00,64.0,29.0,28.52,West,264,2.0,3.0,27,0.00,,,0.00,,2013-04-05 00:22:00,
2013-04-04 19:32:00,64.0,30.0,28.49,West,264,0.0,0.0,28,0.00,,,0.00,,2013-04-05 00:32:00,
2013-04-04 19:42:00,64.0,30.0,28.49,West,264,0.0,0.0,28,0.00,,,0.00,,2013-04-05 00:42:00,
2013-04-04 19:52:00,64.0,30.0,28.52,West,264,0.0,0.0,28,0.00,,,0.00,,2013-04-05 00:52:00,
2013-04-04 20:02:00,64.0,30.0,28.52,West,264,0.0,0.0,28,0.00,,,0.00,,2013-04-05 01:02:00,
2013-04-04 20:12:00,64.0,30.0,28.52,West,264,0.0,0.0,28,0.00,,,0.00,,2013-04-05 01:12:00,
2013-04-04 20:22:00,60.0,29.0,28.52,West,264,0.0,0.0,31,0.00,,,0.00,,2013-04-05 01:22:00,
2013-04-04 20:32:00,58.0,28.0,28.52,West,264,0.0,0.0,32,0.00,,,0.00,,2013-04-05 01:32:00,
2013-04-04 20:42:00,58.0,28.0,28.52,West,264,0.0,0.0,32,0.00,,,0.00,,2013-04-05 01:42:00,
2013-04-04 20:53:00,56.0,28.0,28.52,West,264,0.0,0.0,34,0.00,,,0.00,,2013-04-05 01:53:00,
2013-04-04 21:03:00,54.0,27.0,28.52,West,264,0.0,0.0,35,0.00,,,0.00,,2013-04-05 02:03:00,
2013-04-04 21:12:00,54.0,27.0,28.52,West,264,0.0,0.0,35,0.00,,,0.00,,2013-04-05 02:12:00,
2013-04-04 21:22:00,52.0,27.0,28.52,West,264,0.0,0.0,38,0.00,,,0.00,,2013-04-05 02:22:00,
2013-04-04 21:32:00,51.0,27.0,28.52,West,264,0.0,0.0,39,0.00,,,0.00,,2013-04-05 02:32:00,
2013-04-04 21:42:00,51.0,27.0,28.52,West,264,0.0,0.0,39,0.00,,,0.00,,2013-04-05 02:42:00,
2013-04-04 21:52:00,50.0,28.0,28.52,West,264,0.0,0.0,42,0.00,,,0.00,,2013-04-05 02:52:00,
2013-04-04 22:02:00,49.0,28.0,28.52,West,264,0.0,0.0,44,0.00,,,0.00,,2013-04-05 03:02:00,
2013-04-04 22:12:00,49.0,28.0,28.52,West,264,0.0,0.0,44,0.00,,,0.00,,2013-04-05 03:12:00,
2013-04-04 22:22:00,49.0,30.0,28.52,West,264,0.0,0.0,47,0.00,,,0.00,,2013-04-05 03:22:00,
2013-04-04 22:32:00,48.0,29.0,28.55,West,264,0.0,0.0,47,0.00,,,0.00,,2013-04-05 03:32:00,
2013-04-04 22:43:00,48.0,29.0,28.55,West,264,0.0,0.0,47,0.00,,,0.00,,2013-04-05 03:43:00,
2013-04-04 23:02:00,47.0,29.0,28.55,West,264,0.0,0.0,49,0.00,,,0.00,,2013-04-05 04:02:00,
2013-04-04 23:12:00,47.0,29.0,28.55,West,264,0.0,0.0,49,0.00,,,0.00,,2013-04-05 04:12:00,
2013-04-04 23:22:00,46.0,29.0,28.55,West,264,0.0,0.0,51,0.00,,,0.00,,2013-04-05 04:22:00,
2013-04-04 23:32:00,46.0,30.0,28.55,West,264,0.0,2.0,53,0.00,,,0.00,,2013-04-05 04:32:00,
2013-04-04 23:42:00,46.0,30.0,28.55,West,264,0.0,2.0,53,0.00,,,0.00,,2013-04-05 04:42:00,
2013-04-04 23:52:00,45.0,29.0,28.55,West,264,0.0,0.0,54,0.00,,,0.00,,2013-04-05 04:52:00,